Time;durP1;ratioP1;P1;durP2;ratioP2;P2;SDS_P1;SDS_P2;PMS_P1;PMS_P2;Temp;Humidity;BMP_temperature;BMP_pressure;BME280_temperature;BME280_humidity;BME280_pressure;Samples;Min_cycle;Max_cycle;Signal;HPM_P1;HPM_P2
2021/10/02 00:44:43;;;;;;;33.97;22.15;;;;;;;13.00;100.00;101183.56;5132405;27;20020;-62
2021/10/02 00:47:15;;;;;;;33.35;22.60;;;;;;;13.00;100.00;101188.94;5131835;27;20029;-62
2021/10/02 00:49:42;;;;;;;30.80;22.40;;;;;;;12.95;100.00;101183.06;5131641;27;20026;-62
2021/10/02 00:52:11;;;;;;;32.22;22.10;;;;;;;12.94;100.00;101182.22;5131235;27;20083;-62
2021/10/02 00:54:36;;;;;;;34.22;21.67;;;;;;;12.94;100.00;101189.44;5131915;27;20106;-62
2021/10/02 00:57:03;;;;;;;33.28;23.25;;;;;;;12.92;100.00;101189.56;5131883;27;20102;-62
2021/10/02 00:59:31;;;;;;;33.17;21.55;;;;;;;12.91;100.00;101184.28;5131759;27;20307;-62
2021/10/02 01:02:02;;;;;;;40.15;23.55;;;;;;;12.89;100.00;101178.16;5130462;27;20039;-62
2021/10/02 01:04:46;;;;;;;34.20;23.08;;;;;;;12.87;100.00;101180.16;5130952;27;20470;-62
2021/10/02 01:07:12;;;;;;;29.50;21.95;;;;;;;12.85;100.00;101188.38;5131823;27;20111;-62
2021/10/02 01:09:48;;;;;;;29.25;21.77;;;;;;;12.81;100.00;101176.16;5131565;27;20050;-62
2021/10/02 01:12:28;;;;;;;36.38;22.40;;;;;;;12.79;100.00;101163.78;5131782;27;20033;-62
2021/10/02 01:15:01;;;;;;;37.92;24.80;;;;;;;12.78;100.00;101173.72;5131400;27;20053;-62
2021/10/02 01:17:35;;;;;;;34.72;23.63;;;;;;;12.70;100.00;101168.09;5131320;27;20131;-62
2021/10/02 01:20:19;;;;;;;37.28;23.23;;;;;;;12.70;100.00;101169.91;5131438;27;20496;-63
2021/10/02 01:23:15;;;;;;;35.90;22.90;;;;;;;12.66;100.00;101163.94;5129832;27;20146;-62
2021/10/02 01:25:52;;;;;;;37.30;23.75;;;;;;;12.63;100.00;101153.44;5129699;27;20042;-62
2021/10/02 01:28:20;;;;;;;32.78;22.67;;;;;;;12.62;100.00;101164.34;5129885;27;20031;-62
2021/10/02 01:33:59;;;;;;;33.17;21.67;;;;;;;12.55;100.00;101163.13;5131398;27;20027;-62
2021/10/02 01:47:55;;;;;;;32.63;22.05;;;;;;;12.37;100.00;101160.13;5130172;27;20447;-62
2021/10/02 01:50:29;;;;;;;35.92;23.40;;;;;;;12.34;100.00;101160.38;5130864;27;20042;-62
2021/10/02 01:52:58;;;;;;;32.42;21.35;;;;;;;12.29;100.00;101167.09;5130770;27;20027;-62
2021/10/02 01:55:25;;;;;;;35.75;22.40;;;;;;;12.27;100.00;101172.63;5129541;27;20062;-63
2021/10/02 01:57:55;;;;;;;36.75;22.52;;;;;;;12.23;100.00;101168.47;5130515;27;20107;-62
2021/10/02 02:00:21;;;;;;;30.85;22.90;;;;;;;12.18;100.00;101167.09;5130931;27;20167;-62
2021/10/02 02:02:52;;;;;;;30.15;21.48;;;;;;;12.09;100.00;101157.13;5128910;27;20109;-63
2021/10/02 02:05:21;;;;;;;30.40;21.33;;;;;;;12.11;100.00;101161.38;5130646;27;20031;-63
2021/10/02 02:07:52;;;;;;;31.98;21.88;;;;;;;12.09;100.00;101170.56;5129143;27;20423;-62
2021/10/02 02:10:18;;;;;;;28.20;20.25;;;;;;;12.02;100.00;101155.91;5129572;27;20019;-62
2021/10/02 02:12:45;;;;;;;31.73;20.58;;;;;;;12.00;100.00;101160.53;5129932;27;20558;-63
2021/10/02 02:15:13;;;;;;;28.33;20.85;;;;;;;11.92;99.92;101157.59;5130415;27;20035;-62
2021/10/02 02:17:51;;;;;;;32.70;21.88;;;;;;;11.90;100.00;101159.56;5130217;27;20047;-62
2021/10/02 02:20:30;;;;;;;29.65;20.45;;;;;;;11.87;100.00;101152.63;5129955;27;20543;-63
2021/10/02 02:22:56;;;;;;;29.88;20.27;;;;;;;11.82;100.00;101144.03;5129707;27;20034;-62
2021/10/02 02:25:21;;;;;;;33.42;21.50;;;;;;;11.76;100.00;101143.66;5128309;27;20023;-62
2021/10/02 02:27:47;;;;;;;28.48;21.63;;;;;;;11.70;100.00;101136.94;5129833;27;20034;-62
2021/10/02 02:30:13;;;;;;;29.20;21.30;;;;;;;11.71;100.00;101140.50;5129028;27;20029;-62
2021/10/02 02:32:41;;;;;;;30.48;21.48;;;;;;;11.69;100.00;101142.44;5129599;27;20084;-62
2021/10/02 02:35:07;;;;;;;31.88;22.10;;;;;;;11.64;100.00;101133.91;5129664;27;20039;-62
2021/10/02 02:37:33;;;;;;;35.63;21.92;;;;;;;11.61;100.00;101140.34;5130088;27;20080;-62
2021/10/02 02:39:58;;;;;;;31.30;21.13;;;;;;;11.57;100.00;101139.72;5129567;27;20401;-62
2021/10/02 02:42:24;;;;;;;33.67;21.35;;;;;;;11.54;100.00;101136.41;5128354;27;20023;-62
2021/10/02 02:44:52;;;;;;;32.38;21.17;;;;;;;11.53;100.00;101143.66;5129393;27;20440;-62
2021/10/02 02:47:23;;;;;;;33.05;21.17;;;;;;;11.50;100.00;101151.94;5129689;27;20105;-63
2021/10/02 02:49:52;;;;;;;30.00;20.92;;;;;;;11.46;100.00;101146.94;5129207;27;20494;-62
2021/10/02 02:52:24;;;;;;;34.08;20.83;;;;;;;11.41;100.00;101143.72;5129293;27;20042;-62
2021/10/02 02:55:03;;;;;;;28.67;20.52;;;;;;;11.38;100.00;101141.28;5128526;27;20496;-62
2021/10/02 02:57:34;;;;;;;28.60;21.02;;;;;;;11.33;100.00;101144.34;5128826;27;20023;-62
2021/10/02 03:00:18;;;;;;;31.77;20.92;;;;;;;11.29;100.00;101142.03;5128458;27;20076;-62
2021/10/02 03:02:50;;;;;;;28.08;19.90;;;;;;;11.29;100.00;101144.72;5128064;27;20042;-62
2021/10/02 03:05:17;;;;;;;30.75;20.27;;;;;;;11.24;100.00;101137.00;5128254;27;20120;-62
2021/10/02 03:07:54;;;;;;;27.63;19.95;;;;;;;11.20;100.00;101132.00;5128946;27;20027;-62
2021/10/02 03:10:20;;;;;;;28.85;19.80;;;;;;;11.14;100.00;101125.28;5126714;27;20034;-62
2021/10/02 03:12:48;;;;;;;31.45;20.00;;;;;;;11.13;100.00;101134.28;5128636;27;20046;-62
2021/10/02 03:15:16;;;;;;;30.13;20.20;;;;;;;11.11;100.00;101127.31;5128768;27;20569;-62
2021/10/02 03:17:47;;;;;;;32.03;20.25;;;;;;;11.06;100.00;101125.00;5127683;27;20035;-62
2021/10/02 03:20:14;;;;;;;29.33;20.25;;;;;;;11.03;100.00;101130.59;5128385;27;20022;-62
2021/10/02 03:22:41;;;;;;;27.90;20.27;;;;;;;11.01;100.00;101123.63;5128889;27;20050;-63
2021/10/02 03:25:09;;;;;;;27.65;19.80;;;;;;;11.01;100.00;101129.88;5128466;27;20030;-62
2021/10/02 03:27:34;;;;;;;30.73;20.52;;;;;;;10.95;100.00;101124.97;5128685;27;20023;-63
2021/10/02 03:30:01;;;;;;;35.03;21.20;;;;;;;10.90;100.00;101124.44;5128257;27;20030;-62
2021/10/02 03:32:27;;;;;;;28.52;19.27;;;;;;;10.89;100.00;101124.56;5128624;27;20069;-62
2021/10/02 03:34:53;;;;;;;29.67;19.92;;;;;;;10.84;100.00;101122.22;5128232;27;20024;-62
2021/10/02 03:37:20;;;;;;;27.63;20.90;;;;;;;10.82;100.00;101123.31;5128793;27;20023;-62
2021/10/02 03:39:45;;;;;;;27.35;18.80;;;;;;;10.77;100.00;101110.25;5128052;27;20482;-62
2021/10/02 03:42:20;;;;;;;31.75;20.00;;;;;;;10.76;100.00;101124.66;5127904;27;20025;-62
2021/10/02 03:44:47;;;;;;;28.08;19.30;;;;;;;10.71;100.00;101113.41;5128711;27;20023;-63
2021/10/02 03:47:15;;;;;;;30.58;20.23;;;;;;;10.72;100.00;101116.94;5128799;27;20033;-62
2021/10/02 03:49:41;;;;;;;30.15;20.15;;;;;;;10.67;100.00;101113.75;5128462;27;20470;-62
2021/10/02 03:52:08;;;;;;;28.98;20.83;;;;;;;10.64;100.00;101112.16;5128897;27;20027;-62
2021/10/02 03:54:34;;;;;;;25.45;19.20;;;;;;;10.58;100.00;101109.94;5127539;27;20457;-62
2021/10/02 03:56:59;;;;;;;27.15;18.75;;;;;;;10.54;100.00;101102.22;5128636;27;20459;-63
2021/10/02 03:59:25;;;;;;;27.38;20.67;;;;;;;10.54;100.00;101104.91;5128472;27;20091;-62
2021/10/02 04:01:51;;;;;;;27.10;20.15;;;;;;;10.53;100.00;101104.06;5128419;27;20022;-62
2021/10/02 04:04:17;;;;;;;28.05;19.52;;;;;;;10.50;100.00;101111.47;5128636;27;20087;-62
2021/10/02 04:06:42;;;;;;;28.23;19.52;;;;;;;10.48;100.00;101113.44;5128455;27;20046;-62
2021/10/02 04:09:08;;;;;;;27.60;19.27;;;;;;;10.43;100.00;101107.56;5128712;27;20027;-62
2021/10/02 04:11:33;;;;;;;27.63;18.63;;;;;;;10.45;100.00;101114.50;5128593;27;20055;-62
2021/10/02 04:14:00;;;;;;;26.35;18.25;;;;;;;10.42;100.00;101108.53;5128054;27;20068;-62
2021/10/02 04:16:25;;;;;;;27.52;19.90;;;;;;;10.38;100.00;101104.38;5128919;27;20549;-62
2021/10/02 04:18:51;;;;;;;26.52;19.27;;;;;;;10.39;100.00;101106.09;5128290;27;20143;-62
2021/10/02 04:21:17;;;;;;;35.55;19.02;;;;;;;10.39;100.00;101106.09;5128449;27;20023;-62
2021/10/02 04:23:42;;;;;;;25.67;18.65;;;;;;;10.34;100.00;101094.81;5128237;27;20104;-62
2021/10/02 04:26:08;;;;;;;27.40;19.42;;;;;;;10.32;100.00;101100.31;5128528;27;20038;-62
2021/10/02 04:28:33;;;;;;;31.40;18.17;;;;;;;10.30;100.00;101093.34;5128741;27;20042;-62
2021/10/02 04:31:03;;;;;;;23.42;17.38;;;;;;;10.31;100.00;101101.28;5128114;27;20019;-62
2021/10/02 04:33:29;;;;;;;25.05;19.52;;;;;;;10.27;100.00;101093.56;5128062;27;20031;-62
2021/10/02 04:35:55;;;;;;;28.48;17.60;;;;;;;10.25;100.00;101100.91;5128430;27;20034;-62
2021/10/02 04:38:20;;;;;;;27.67;17.52;;;;;;;10.21;100.00;101100.25;5128272;27;20561;-62
2021/10/02 04:40:46;;;;;;;27.60;18.27;;;;;;;10.20;100.00;101111.97;5128384;27;20034;-62
2021/10/02 04:43:11;;;;;;;27.52;17.90;;;;;;;10.19;100.00;101106.72;5128615;27;20360;-62
2021/10/02 04:45:37;;;;;;;27.38;18.88;;;;;;;10.19;100.00;101110.22;5128625;27;20108;-62
2021/10/02 04:48:02;;;;;;;24.95;18.15;;;;;;;10.17;100.00;101106.81;5128317;27;20031;-63
2021/10/02 04:50:28;;;;;;;24.63;17.33;;;;;;;10.13;100.00;101105.31;5128370;27;20108;-62
2021/10/02 04:52:55;;;;;;;25.45;17.67;;;;;;;10.15;100.00;101119.47;5130580;27;20031;-62
2021/10/02 04:55:21;;;;;;;28.60;17.52;;;;;;;10.11;100.00;101106.41;5129764;27;20487;-62
2021/10/02 04:57:47;;;;;;;22.48;16.48;;;;;;;10.11;100.00;101120.66;5131820;27;20390;-62
2021/10/02 05:00:12;;;;;;;25.08;17.15;;;;;;;10.07;100.00;101121.88;5130748;27;20023;-62
2021/10/02 05:02:38;;;;;;;25.45;17.13;;;;;;;10.07;100.00;101121.88;5130708;27;20030;-62
2021/10/02 05:05:04;;;;;;;22.23;16.33;;;;;;;10.05;100.00;101122.88;5130784;27;20031;-62
2021/10/02 05:07:29;;;;;;;28.95;18.45;;;;;;;10.01;100.00;101124.09;5131708;27;20060;-62
2021/10/02 05:09:55;;;;;;;26.15;17.27;;;;;;;10.01;100.00;101124.09;5130282;27;20059;-62
2021/10/02 05:12:20;;;;;;;28.48;18.00;;;;;;;10.02;100.00;101131.16;5132101;27;20034;-62
2021/10/02 05:14:46;;;;;;;27.25;16.20;;;;;;;10.03;100.00;101133.72;5131599;27;20035;-62
2021/10/02 05:17:11;;;;;;;24.73;17.50;;;;;;;10.01;100.00;101135.69;5131746;27;20047;-62
2021/10/02 05:19:39;;;;;;;24.67;17.70;;;;;;;9.97;100.00;101120.78;5131955;27;20031;-62
2021/10/02 05:22:06;;;;;;;28.90;17.70;;;;;;;10.05;100.00;101136.28;5131606;27;20475;-62
2021/10/02 05:24:36;;;;;;;23.90;17.55;;;;;;;10.07;100.00;101140.63;5131166;27;20035;-62
2021/10/02 05:27:03;;;;;;;24.67;18.00;;;;;;;10.06;100.00;101136.22;5131534;27;20027;-62
2021/10/02 05:29:29;;;;;;;30.23;19.25;;;;;;;10.11;100.00;101143.91;5131326;27;20019;-62
2021/10/02 05:31:54;;;;;;;28.95;19.25;;;;;;;10.14;100.00;101141.88;5131186;27;20496;-62
2021/10/02 05:34:19;;;;;;;26.23;17.73;;;;;;;10.15;100.00;101143.59;5131334;27;20027;-62
2021/10/02 05:36:45;;;;;;;34.45;18.98;;;;;;;10.23;100.00;101143.91;5131186;27;20096;-62
2021/10/02 05:39:10;;;;;;;30.20;18.13;;;;;;;10.24;100.00;101142.06;5130320;27;20026;-62
2021/10/02 05:41:36;;;;;;;25.08;17.42;;;;;;;10.40;100.00;101153.38;5130323;27;20031;-62
2021/10/02 05:44:02;;;;;;;25.42;17.52;;;;;;;10.46;100.00;101152.91;5129721;27;20023;-63
2021/10/02 05:46:27;;;;;;;23.00;16.38;;;;;;;10.55;100.00;101155.75;5130957;27;20430;-63
2021/10/02 05:48:52;;;;;;;28.35;17.77;;;;;;;10.65;100.00;101151.44;5129517;27;20023;-62
2021/10/02 05:51:18;;;;;;;25.17;16.40;;;;;;;10.72;100.00;101150.00;5129627;27;20027;-63
2021/10/02 05:53:43;;;;;;;27.83;17.40;;;;;;;10.79;100.00;101153.94;5131286;27;20054;-63
2021/10/02 05:56:09;;;;;;;23.88;16.33;;;;;;;10.87;100.00;101154.19;5131241;27;20474;-62
2021/10/02 05:58:34;;;;;;;26.70;15.60;;;;;;;10.96;100.00;101158.00;5129380;27;20030;-62
2021/10/02 06:01:00;;;;;;;21.85;15.90;;;;;;;11.02;99.79;101155.72;5130393;27;20031;-62
2021/10/02 06:03:25;;;;;;;22.50;15.23;;;;;;;11.12;98.76;101161.25;5126894;27;20114;-63
2021/10/02 06:05:51;;;;;;;22.55;14.90;;;;;;;11.23;97.74;101158.59;5126050;27;20486;-63
2021/10/02 06:08:16;;;;;;;25.20;14.70;;;;;;;11.31;96.99;101158.84;5129979;27;20027;-63
2021/10/02 06:10:42;;;;;;;20.80;14.23;;;;;;;11.42;96.30;101172.31;5130072;27;20019;-63
2021/10/02 06:13:07;;;;;;;23.98;15.18;;;;;;;11.50;95.42;101169.88;5130461;27;20482;-62
2021/10/02 06:15:32;;;;;;;20.98;15.63;;;;;;;11.59;95.07;101171.84;5129869;27;20030;-62
2021/10/02 06:17:58;;;;;;;23.95;15.00;;;;;;;11.71;93.76;101172.75;5129903;27;20047;-62
2021/10/02 06:20:24;;;;;;;18.02;14.00;;;;;;;11.82;92.77;101181.69;5130159;27;20063;-62
2021/10/02 06:22:51;;;;;;;21.40;13.20;;;;;;;11.97;90.95;101182.28;5128482;27;20039;-62
2021/10/02 06:25:17;;;;;;;18.70;12.57;;;;;;;12.05;89.97;101185.22;5129610;27;20030;-63
2021/10/02 06:27:42;;;;;;;16.90;12.25;;;;;;;12.12;89.26;101179.22;5129854;27;20492;-62
2021/10/02 06:30:09;;;;;;;19.30;12.35;;;;;;;12.30;87.92;101190.31;5130110;27;20030;-63
2021/10/02 06:32:34;;;;;;;21.08;12.98;;;;;;;12.40;86.52;101189.47;5130021;27;20396;-63
2021/10/02 06:35:00;;;;;;;19.92;12.48;;;;;;;12.51;86.27;101185.91;5129081;27;20050;-62
2021/10/02 06:37:25;;;;;;;19.58;11.77;;;;;;;12.66;83.57;101188.19;5129683;27;20370;-62
2021/10/02 06:39:51;;;;;;;19.05;12.13;;;;;;;12.79;82.05;101186.19;5129744;27;20466;-62
2021/10/02 06:42:16;;;;;;;19.98;11.38;;;;;;;12.92;80.52;101183.31;5129745;27;20161;-62
2021/10/02 06:44:42;;;;;;;22.15;12.32;;;;;;;13.08;78.57;101189.16;5129441;27;20718;-62
2021/10/02 06:47:07;;;;;;;20.48;11.90;;;;;;;13.21;78.11;101182.59;5129796;27;20023;-62
2021/10/02 06:49:33;;;;;;;14.25;10.40;;;;;;;13.42;77.61;101179.91;5129450;27;20375;-63
2021/10/02 06:51:59;;;;;;;14.90;10.35;;;;;;;13.61;76.50;101180.88;5129217;27;20028;-62
2021/10/02 06:54:24;;;;;;;12.55;10.70;;;;;;;13.84;75.29;101192.38;5129721;27;20027;-63
2021/10/02 06:56:50;;;;;;;14.98;9.50;;;;;;;14.04;73.28;101179.81;5127683;27;20071;-63
2021/10/02 06:59:15;;;;;;;14.85;10.88;;;;;;;14.28;72.49;101183.06;5127667;27;20022;-62
2021/10/02 07:01:42;;;;;;;14.18;10.25;;;;;;;14.48;70.44;101188.38;5129743;27;20019;-62
2021/10/02 07:04:08;;;;;;;15.25;9.32;;;;;;;14.59;68.47;101184.69;5126200;27;20514;-62
2021/10/02 07:06:34;;;;;;;19.48;10.27;;;;;;;14.72;68.20;101188.84;5128975;27;20141;-62
2021/10/02 07:08:59;;;;;;;15.68;9.75;;;;;;;14.82;67.14;101187.00;5128084;27;20023;-63
2021/10/02 07:11:25;;;;;;;18.73;10.55;;;;;;;14.90;66.24;101197.13;5129334;27;20485;-62
2021/10/02 07:13:50;;;;;;;17.70;11.00;;;;;;;15.02;64.57;101186.03;5128748;27;20027;-62
2021/10/02 07:16:15;;;;;;;16.08;10.65;;;;;;;15.02;64.80;101177.06;5129421;27;20023;-62
2021/10/02 07:18:41;;;;;;;13.05;9.90;;;;;;;15.12;64.91;101180.63;5129046;27;20112;-62
2021/10/02 07:21:06;;;;;;;14.02;9.85;;;;;;;15.13;64.73;101175.06;5128558;27;20030;-62
2021/10/02 07:23:33;;;;;;;14.32;9.27;;;;;;;15.15;64.45;101174.91;5124716;27;20027;-62
2021/10/02 07:25:59;;;;;;;12.52;9.68;;;;;;;15.21;65.27;101167.13;5125153;27;20466;-62
2021/10/02 07:28:25;;;;;;;17.73;9.80;;;;;;;15.43;64.90;101164.13;5125731;27;20518;-62
2021/10/02 07:30:51;;;;;;;13.45;9.68;;;;;;;15.77;63.94;101167.19;5128527;27;20042;-63
2021/10/02 07:33:16;;;;;;;14.73;8.55;;;;;;;16.46;61.35;101173.88;5128361;27;20084;-62
2021/10/02 07:35:42;;;;;;;13.25;9.45;;;;;;;17.56;58.42;101154.44;5128272;27;20031;-62
2021/10/02 07:38:07;;;;;;;11.48;8.50;;;;;;;18.48;54.49;101161.75;5128677;27;20058;-63
2021/10/02 07:40:34;;;;;;;12.48;8.93;;;;;;;19.39;51.63;101150.69;5128602;27;20102;-62
2021/10/02 07:43:02;;;;;;;15.00;9.18;;;;;;;19.60;50.10;101156.44;5126769;27;20026;-63
2021/10/02 07:45:28;;;;;;;11.77;8.23;;;;;;;19.89;48.50;101155.84;5126972;27;20370;-63
2021/10/02 07:47:55;;;;;;;13.80;8.25;;;;;;;21.17;45.59;101152.53;5128221;27;20031;-63
2021/10/02 07:50:22;;;;;;;13.10;7.55;;;;;;;21.82;44.10;101141.88;5128315;27;20102;-63
2021/10/02 07:52:50;;;;;;;11.15;7.28;;;;;;;22.58;41.25;101141.47;5127015;28;20047;-63
2021/10/02 07:55:16;;;;;;;14.48;7.78;;;;;;;22.95;40.42;101125.69;5126942;28;20065;-63
2021/10/02 07:57:43;;;;;;;10.93;7.13;;;;;;;;;;5128369;27;20490;-63
2021/10/02 08:00:11;;;;;;;13.25;6.63;;;;;;;22.97;40.53;101137.28;5128472;27;20019;-63
2021/10/02 08:02:41;;;;;;;10.73;6.97;;;;;;;23.15;39.96;101136.84;5128162;27;20029;-63
2021/10/02 08:05:09;;;;;;;9.98;6.55;;;;;;;23.46;38.97;101135.47;5127217;27;20042;-63
2021/10/02 08:07:37;;;;;;;9.88;6.28;;;;;;;23.58;38.51;101128.41;5128333;27;20423;-63
2021/10/02 08:10:02;;;;;;;11.68;6.43;;;;;;;24.45;36.89;101130.41;5128049;27;20248;-63
2021/10/02 08:12:28;;;;;;;13.45;6.53;;;;;;;25.15;36.29;101119.03;5128296;27;20483;-62
2021/10/02 08:14:53;;;;;;;9.57;6.47;;;;;;;25.84;35.40;101123.06;5127923;27;20019;-64
2021/10/02 08:17:22;;;;;;;9.57;6.15;;;;;;;26.25;33.92;101120.03;5128242;27;20468;-63
2021/10/02 08:19:49;;;;;;;10.05;5.80;;;;;;;25.82;34.55;101113.31;5127493;27;20045;-63
2021/10/02 08:22:15;;;;;;;7.30;5.85;;;;;;;25.11;34.96;101119.69;5128535;27;20561;-63
2021/10/02 08:24:41;;;;;;;15.02;6.22;;;;;;;24.47;36.07;101121.97;5127309;27;20027;-63
2021/10/02 08:27:07;;;;;;;11.50;6.15;;;;;;;23.87;36.38;101121.88;5128508;27;20519;-63
2021/10/02 08:29:32;;;;;;;9.90;5.47;;;;;;;23.30;38.04;101113.84;5130847;27;20052;-63
2021/10/02 08:31:58;;;;;;;9.52;5.65;;;;;;;22.89;38.91;101117.44;5130694;27;20106;-63
2021/10/02 08:34:24;;;;;;;11.52;6.43;;;;;;;22.68;39.40;101122.84;5131961;27;20110;-63
2021/10/02 08:36:50;;;;;;;13.68;5.97;;;;;;;23.41;37.49;101115.22;5130368;27;20027;-63
2021/10/02 08:39:16;;;;;;;11.27;5.50;;;;;;;24.90;35.23;101125.31;5131566;27;20415;-63
2021/10/02 08:41:43;;;;;;;16.05;5.88;;;;;;;26.22;32.89;101117.72;5130462;27;20511;-63
2021/10/02 08:44:10;;;;;;;13.07;5.78;;;;;;;27.43;31.32;101110.03;5131615;27;20482;-63
2021/10/02 08:46:37;;;;;;;15.27;5.47;;;;;;;28.21;30.13;101102.91;5131725;27;20026;-63
2021/10/02 08:49:24;;;;;;;10.68;4.80;;;;;;;28.50;29.15;101102.13;5129983;27;20134;-63
2021/10/02 08:51:51;;;;;;;10.50;5.72;;;;;;;29.01;28.88;101107.16;5131711;27;20050;-63
2021/10/02 08:54:18;;;;;;;12.60;5.10;;;;;;;29.01;29.02;101102.47;5131868;27;20027;-63
2021/10/02 08:56:46;;;;;;;6.47;4.40;;;;;;;29.63;28.07;101101.09;5131139;27;20026;-65
2021/10/02 08:59:14;;;;;;;9.80;5.25;;;;;;;30.40;27.19;101090.41;5131889;27;20027;-63
2021/10/02 09:01:41;;;;;;;12.18;5.82;;;;;;;31.02;26.40;101085.84;5131575;27;20356;-63
2021/10/02 09:04:07;;;;;;;11.32;5.38;;;;;;;31.28;25.71;101085.22;5129613;27;20027;-63
2021/10/02 09:06:37;;;;;;;10.90;5.10;;;;;;;31.83;24.87;101085.31;5131337;27;20486;-63
2021/10/02 09:09:04;;;;;;;10.20;5.03;;;;;;;32.21;24.17;101082.50;5131081;27;20079;-64
2021/10/02 09:11:30;;;;;;;11.63;4.85;;;;;;;32.09;24.27;101099.28;5130950;27;20023;-63
2021/10/02 09:13:56;;;;;;;4.88;4.03;;;;;;;31.72;24.55;101086.22;5131086;27;20126;-63
2021/10/02 09:16:21;;;;;;;6.90;4.95;;;;;;;30.84;25.41;101096.28;5129845;27;20385;-63
2021/10/02 09:18:47;;;;;;;10.85;4.38;;;;;;;30.33;25.63;101086.94;5131055;27;20047;-63
2021/10/02 09:21:13;;;;;;;8.45;4.82;;;;;;;30.07;26.42;101087.47;5131356;27;20058;-63
2021/10/02 09:23:47;;;;;;;7.05;4.40;;;;;;;30.24;26.03;101079.28;5129656;27;20081;-63
2021/10/02 09:26:13;;;;;;;9.65;4.55;;;;;;;30.63;26.00;101087.56;5130654;27;20035;-63
2021/10/02 09:28:46;;;;;;;9.73;4.82;;;;;;;31.24;25.02;101083.19;5129857;27;20023;-63
2021/10/02 09:31:15;;;;;;;5.70;4.53;;;;;;;31.63;24.43;101076.66;5131059;27;20076;-63
2021/10/02 09:33:46;;;;;;;7.82;3.95;;;;;;;32.02;23.50;101070.84;5130738;27;20059;-63
2021/10/02 09:36:22;;;;;;;9.32;3.97;;;;;;;32.48;23.11;101073.16;5128971;27;20025;-63
2021/10/02 09:38:52;;;;;;;5.13;3.85;;;;;;;32.53;22.83;101069.63;5130926;27;20084;-63
2021/10/02 09:41:18;;;;;;;8.45;3.63;;;;;;;32.46;23.04;101069.81;5130452;27;20015;-63
2021/10/02 09:43:53;;;;;;;14.15;4.15;;;;;;;32.15;23.11;101059.38;5131173;27;20035;-64
2021/10/02 09:46:31;;;;;;;10.27;4.50;;;;;;;31.66;24.13;101067.81;5129067;27;20027;-64
2021/10/02 09:48:57;;;;;;;7.72;4.15;;;;;;;30.94;25.20;101069.63;5129911;27;20050;-64
2021/10/02 09:51:38;;;;;;;14.95;4.25;;;;;;;30.14;25.54;101079.84;5129274;27;20047;-63
2021/10/02 09:54:04;;;;;;;6.55;3.63;;;;;;;29.34;26.42;101072.41;5130728;27;20031;-64
2021/10/02 09:56:29;;;;;;;6.93;3.97;;;;;;;28.85;26.62;101077.44;5130143;27;20027;-63
2021/10/02 09:58:55;;;;;;;5.43;4.30;;;;;;;28.04;27.99;101082.50;5130256;27;20030;-63
2021/10/02 10:01:23;;;;;;;10.85;4.40;;;;;;;27.22;29.06;101077.34;5130266;27;20020;-63
2021/10/02 10:03:49;;;;;;;6.97;4.13;;;;;;;26.67;30.20;101083.66;5127649;27;20030;-63
2021/10/02 10:06:26;;;;;;;6.95;4.35;;;;;;;26.10;30.75;101075.44;5126154;27;20027;-64
2021/10/02 10:09:09;;;;;;;8.48;4.38;;;;;;;25.60;30.91;101081.66;5123567;27;20482;-63
2021/10/02 10:11:46;;;;;;;6.78;4.15;;;;;;;25.11;31.93;101084.81;5126608;27;20026;-63
2021/10/02 10:14:20;;;;;;;5.65;4.22;;;;;;;24.72;32.63;101078.41;5127270;27;20104;-63
2021/10/02 10:16:45;;;;;;;8.93;4.72;;;;;;;24.38;33.50;101085.66;5126432;27;20466;-62
2021/10/02 10:19:27;;;;;;;11.00;4.68;;;;;;;24.11;33.50;101081.13;5125468;27;20050;-63
2021/10/02 10:22:19;;;;;;;6.03;4.50;;;;;;;23.79;34.43;101081.75;5123175;27;20490;-62
2021/10/02 10:24:53;;;;;;;8.70;4.53;;;;;;;23.57;35.30;101082.88;5126040;27;20031;-62
2021/10/02 10:27:29;;;;;;;;;;;;;;;23.35;35.25;101067.56;5126508;27;20027;-62
2021/10/02 10:30:15;;;;;;;7.93;5.18;;;;;;;23.23;35.86;101073.75;5125326;27;19915;-62
2021/10/02 10:33:04;;;;;;;6.55;4.93;;;;;;;22.97;35.65;101062.56;5122019;27;20088;-62
2021/10/02 10:35:43;;;;;;;8.85;5.55;;;;;;;22.77;36.72;101062.38;5125158;27;20107;-62
2021/10/02 10:38:11;;;;;;;8.40;4.40;;;;;;;22.61;36.79;101061.78;5122234;27;20031;-63
2021/10/02 10:40:37;;;;;;;6.05;5.00;;;;;;;22.42;37.08;101053.13;5125188;27;20038;-62
2021/10/02 10:43:03;;;;;;;13.10;5.53;;;;;;;22.30;37.59;101059.28;5122388;27;20031;-63
2021/10/02 10:45:29;;;;;;;11.45;5.07;;;;;;;22.14;37.89;101060.38;5126232;27;20143;-62
2021/10/02 10:47:56;;;;;;;12.38;5.15;;;;;;;22.03;37.90;101054.53;5126976;27;20490;-62
2021/10/02 10:50:23;;;;;;;9.35;5.53;;;;;;;21.90;38.82;101048.91;5123994;27;20042;-62
2021/10/02 10:52:49;;;;;;;10.40;5.72;;;;;;;21.83;38.84;101050.72;5124580;27;20027;-63
2021/10/02 10:55:19;;;;;;;8.32;5.82;;;;;;;21.72;39.36;101046.53;5123986;27;20452;-63
2021/10/02 10:57:48;;;;;;;17.67;12.45;;;;;;;21.64;39.62;101043.06;5121668;27;20062;-63
2021/10/02 11:00:15;;;;;;;13.35;8.85;;;;;;;21.56;39.71;101048.59;5124168;27;20470;-62
2021/10/02 11:02:51;;;;;;;11.30;6.07;;;;;;;21.45;39.74;101029.97;5124068;27;20019;-63
2021/10/02 11:05:34;;;;;;;8.38;5.72;;;;;;;21.38;40.08;101037.19;5120928;27;20071;-63
2021/10/02 11:08:00;;;;;;;15.00;5.90;;;;;;;21.31;39.88;101028.06;5121740;27;20031;-62
2021/10/02 11:10:41;;;;;;;13.80;5.78;;;;;;;21.18;40.04;101028.69;5127886;27;20069;-62
2021/10/02 11:13:27;;;;;;;10.45;5.95;;;;;;;21.08;40.79;101028.13;5127454;27;20076;-65
2021/10/02 11:15:53;;;;;;;11.68;6.75;;;;;;;21.01;40.90;101026.31;5115156;27;20038;-65
2021/10/02 11:18:45;;;;;;;15.70;5.30;;;;;;;20.92;41.38;101025.50;5125752;27;20046;-65
2021/10/02 11:21:14;;;;;;;12.23;5.47;;;;;;;20.87;41.76;101021.63;5126550;27;20047;-65
2021/10/02 11:23:39;;;;;;;10.60;6.20;;;;;;;20.85;41.52;101029.13;5126564;27;20031;-65
2021/10/02 11:26:36;;;;;;;9.32;5.45;;;;;;;20.78;41.56;101031.78;5126210;27;20031;-65
2021/10/02 11:29:01;;;;;;;12.30;5.38;;;;;;;20.72;41.32;101024.31;5123872;27;20398;-65
2021/10/02 11:31:29;;;;;;;9.80;5.82;;;;;;;20.69;42.08;101021.94;5127880;27;20029;-65
2021/10/02 11:33:59;;;;;;;11.30;6.32;;;;;;;20.66;42.16;101027.75;5126894;27;20052;-65
2021/10/02 11:36:39;;;;;;;10.20;5.95;;;;;;;20.63;41.96;101027.31;5125456;27;20538;-65
2021/10/02 11:39:18;;;;;;;9.93;5.95;;;;;;;20.61;42.43;101024.75;5125683;27;20128;-65
2021/10/02 11:42:12;;;;;;;8.98;6.00;;;;;;;20.58;42.25;101016.09;5126583;27;20027;-65
2021/10/02 11:44:44;;;;;;;9.75;6.07;;;;;;;20.56;42.41;101016.25;5126451;27;20497;-65
2021/10/02 11:47:29;;;;;;;10.10;6.05;;;;;;;20.57;42.11;101017.13;5127993;27;20248;-65
2021/10/02 11:50:07;;;;;;;9.93;5.97;;;;;;;20.51;41.83;101009.66;5126153;27;20506;-65
2021/10/02 11:52:36;;;;;;;18.60;6.40;;;;;;;20.46;41.90;101002.03;5127998;27;20087;-65
2021/10/02 11:55:33;;;;;;;8.50;5.93;;;;;;;20.42;42.49;101008.88;5127221;27;20482;-64
2021/10/02 11:58:07;;;;;;;11.02;5.82;;;;;;;20.40;42.56;101002.75;5126481;27;20102;-65
2021/10/02 12:00:44;;;;;;;8.15;6.05;;;;;;;20.37;42.24;101000.38;5122177;27;20023;-65
2021/10/02 12:03:26;;;;;;;10.07;5.90;;;;;;;20.36;42.18;101000.56;5127570;27;20490;-65
2021/10/02 12:05:54;;;;;;;11.70;6.20;;;;;;;20.32;41.80;100991.94;5129857;27;20035;-65
2021/10/02 12:08:19;;;;;;;9.25;6.10;;;;;;;20.27;42.42;100986.16;5127359;27;20386;-65
2021/10/02 12:10:51;;;;;;;13.77;6.30;;;;;;;20.30;42.71;100993.09;5130040;27;20031;-65
2021/10/02 12:13:31;;;;;;;13.77;6.20;;;;;;;20.26;42.22;100972.72;5129377;27;20494;-64
2021/10/02 12:16:03;;;;;;;7.95;6.05;;;;;;;20.24;42.26;100988.41;5129410;27;20062;-65
2021/10/02 12:18:58;;;;;;;9.55;6.20;;;;;;;20.19;42.21;100980.78;5129262;27;20074;-64